Time;durP1;ratioP1;P1;durP2;ratioP2;P2;SDS_P1;SDS_P2;PMS_P1;PMS_P2;Temp;Humidity;BMP_temperature;BMP_pressure;BME280_temperature;BME280_humidity;BME280_pressure;Samples;Min_cycle;Max_cycle;Signal;HPM_P1;HPM_P2
2022/04/23 00:01:18;;;;;;;18.97;15.30;;;13.00;99.90;;;;;;5074424;28;20496;-87
2022/04/23 00:03:45;;;;;;;18.20;16.10;;;13.00;99.90;;;;;;5072249;28;20888;-87
2022/04/23 00:06:12;;;;;;;17.33;15.00;;;12.90;99.90;;;;;;5069219;28;20455;-87
2022/04/23 00:08:40;;;;;;;19.33;15.03;;;12.90;99.90;;;;;;5070111;28;20430;-87
2022/04/23 00:11:07;;;;;;;19.87;15.40;;;12.90;99.90;;;;;;5067693;28;20472;-87
2022/04/23 00:13:34;;;;;;;19.73;15.30;;;12.80;99.90;;;;;;5069747;28;20443;-87
2022/04/23 00:16:01;;;;;;;17.93;15.40;;;12.80;99.90;;;;;;5072282;28;20500;-87
2022/04/23 00:18:30;;;;;;;17.60;15.20;;;12.70;99.90;;;;;;5069811;28;20438;-87
2022/04/23 00:21:00;;;;;;;17.23;14.70;;;12.70;99.90;;;;;;5069023;28;20806;-87
2022/04/23 00:23:29;;;;;;;19.80;17.70;;;12.70;99.90;;;;;;5069291;28;20456;-87
2022/04/23 00:25:58;;;;;;;18.67;14.50;;;12.60;99.90;;;;;;5068151;28;20475;-87
2022/04/23 00:28:26;;;;;;;17.10;13.90;;;12.60;99.90;;;;;;5069238;28;20845;-86
2022/04/23 00:30:53;;;;;;;27.00;15.23;;;12.60;99.90;;;;;;5068076;28;20498;-86
2022/04/23 00:33:20;;;;;;;18.93;14.33;;;12.60;99.90;;;;;;5067632;28;20461;-86
2022/04/23 00:35:49;;;;;;;19.90;15.07;;;12.60;99.90;;;;;;5069195;28;20431;-87
2022/04/23 00:38:16;;;;;;;18.10;15.30;;;12.60;99.90;;;;;;5069805;28;20438;-87
2022/04/23 00:40:43;;;;;;;20.10;14.83;;;12.60;99.90;;;;;;5079029;28;20423;-86
2022/04/23 00:43:26;;;;;;;17.70;15.80;;;12.60;99.90;;;;;;5080332;28;20417;-86
2022/04/23 00:45:53;;;;;;;18.27;14.70;;;12.50;99.90;;;;;;5080035;28;20401;-85
2022/04/23 00:48:24;;;;;;;19.63;16.20;;;12.50;99.90;;;;;;5079209;28;20452;-85
2022/04/23 00:50:52;;;;;;;19.00;14.00;;;12.40;99.90;;;;;;5066151;28;20475;-86
2022/04/23 00:53:21;;;;;;;17.97;15.50;;;12.50;99.90;;;;;;5064740;28;20940;-86
2022/04/23 00:55:49;;;;;;;19.80;14.73;;;12.40;99.90;;;;;;5070183;28;20423;-87
2022/04/23 00:58:18;;;;;;;18.87;15.87;;;12.40;99.90;;;;;;5077047;28;20431;-87
2022/04/23 01:00:45;;;;;;;18.50;15.47;;;12.30;99.90;;;;;;5077056;28;20448;-87
2022/04/23 01:03:15;;;;;;;16.67;14.60;;;12.40;99.90;;;;;;5069522;28;20460;-87
2022/04/23 01:05:44;;;;;;;18.20;15.70;;;12.30;99.90;;;;;;5070875;28;20434;-87
2022/04/23 01:08:14;;;;;;;18.73;13.50;;;12.20;99.90;;;;;;5070470;28;20845;-86
2022/04/23 01:10:43;;;;;;;18.10;13.90;;;12.10;99.90;;;;;;5064523;28;20567;-86
2022/04/23 01:13:11;;;;;;;21.20;15.20;;;12.10;99.90;;;;;;5063521;28;20475;-86
2022/04/23 01:15:40;;;;;;;18.20;16.13;;;11.90;99.90;;;;;;5063004;28;20483;-86
2022/04/23 01:18:07;;;;;;;20.83;15.90;;;11.80;99.90;;;;;;5064399;28;20483;-86
2022/04/23 01:20:39;;;;;;;18.23;15.57;;;11.80;99.90;;;;;;5063170;28;20556;-87
2022/04/23 01:23:06;;;;;;;18.47;15.90;;;11.90;99.90;;;;;;5064987;28;20457;-87
2022/04/23 01:25:34;;;;;;;18.57;15.60;;;11.90;99.90;;;;;;5065088;28;20978;-86
2022/04/23 01:28:02;;;;;;;17.00;14.57;;;11.90;99.90;;;;;;5065408;28;20484;-86
2022/04/23 01:30:29;;;;;;;20.77;15.30;;;12.00;99.90;;;;;;5065155;28;20468;-86
2022/04/23 01:32:56;;;;;;;19.10;14.50;;;11.90;99.90;;;;;;5065537;28;20411;-85
2022/04/23 01:35:23;;;;;;;16.57;14.50;;;11.90;99.90;;;;;;5068943;28;20467;-85
2022/04/23 01:37:54;;;;;;;17.67;13.93;;;12.00;99.90;;;;;;5062596;28;20538;-85
2022/04/23 01:40:21;;;;;;;22.73;16.87;;;12.10;99.90;;;;;;5064540;28;20454;-86
2022/04/23 01:42:48;;;;;;;24.20;15.20;;;11.90;99.90;;;;;;5064216;28;20456;-85
2022/04/23 01:45:15;;;;;;;19.47;14.90;;;11.90;99.90;;;;;;5063288;28;20423;-86
2022/04/23 01:47:42;;;;;;;19.47;15.03;;;11.90;99.90;;;;;;5066613;28;20455;-86
2022/04/23 01:50:11;;;;;;;15.97;12.50;;;11.90;99.90;;;;;;5071300;28;20457;-85
2022/04/23 01:52:40;;;;;;;15.90;13.37;;;12.00;99.90;;;;;;5072418;28;20449;-86
2022/04/23 01:55:11;;;;;;;16.97;14.53;;;12.00;99.90;;;;;;5066538;28;20483;-86
2022/04/23 01:57:42;;;;;;;16.73;13.70;;;11.90;99.90;;;;;;5066847;28;20440;-86
2022/04/23 02:00:21;;;;;;;15.60;14.00;;;12.00;99.90;;;;;;5066094;28;20464;-84
2022/04/23 02:02:51;;;;;;;18.03;14.87;;;12.00;99.90;;;;;;5065694;28;20448;-87
2022/04/23 02:05:17;;;;;;;16.67;13.23;;;11.90;99.90;;;;;;5067465;28;20858;-85
2022/04/23 02:07:46;;;;;;;15.80;14.10;;;11.90;99.90;;;;;;5074361;28;20449;-85
2022/04/23 02:10:16;;;;;;;17.07;14.13;;;11.80;99.90;;;;;;5067340;28;20490;-85
2022/04/23 02:12:45;;;;;;;17.10;13.20;;;11.80;99.90;;;;;;5068391;28;20404;-86
2022/04/23 02:15:14;;;;;;;15.40;12.83;;;11.80;99.90;;;;;;5066743;28;20419;-86
2022/04/23 02:17:42;;;;;;;13.93;12.43;;;11.80;99.90;;;;;;5073854;28;20399;-85
2022/04/23 02:20:11;;;;;;;16.83;12.87;;;11.90;99.90;;;;;;5069618;28;20995;-85
2022/04/23 02:22:42;;;;;;;16.33;13.50;;;11.80;99.90;;;;;;5065632;28;20449;-86
2022/04/23 02:25:09;;;;;;;17.50;13.63;;;11.70;99.90;;;;;;5065571;28;20410;-87
2022/04/23 02:27:46;;;;;;;15.80;13.27;;;11.70;99.90;;;;;;5063851;28;20484;-87
2022/04/23 02:30:15;;;;;;;15.00;12.70;;;11.60;99.90;;;;;;5070793;28;20461;-86
2022/04/23 02:32:42;;;;;;;17.07;14.37;;;11.60;99.90;;;;;;5069479;28;20484;-86
2022/04/23 02:35:10;;;;;;;16.20;13.93;;;11.60;99.90;;;;;;5065103;28;20474;-87
2022/04/23 02:37:42;;;;;;;16.30;13.60;;;11.60;99.90;;;;;;5064939;28;20447;-86
2022/04/23 02:40:10;;;;;;;17.53;14.37;;;11.60;99.90;;;;;;5063964;28;20554;-86
2022/04/23 02:42:39;;;;;;;20.03;13.50;;;11.60;99.90;;;;;;5067719;28;20444;-86
2022/04/23 02:45:09;;;;;;;16.33;13.60;;;11.60;99.90;;;;;;5065250;28;20431;-86
2022/04/23 02:47:44;;;;;;;17.13;13.37;;;11.50;99.90;;;;;;5062985;28;20484;-86
2022/04/23 02:50:13;;;;;;;17.30;13.80;;;11.50;99.90;;;;;;5062426;28;20917;-85
2022/04/23 02:52:43;;;;;;;18.00;14.40;;;11.40;99.90;;;;;;5062812;28;20515;-87
2022/04/23 02:55:11;;;;;;;16.13;13.27;;;11.40;99.90;;;;;;5070702;28;20437;-86
2022/04/23 02:57:38;;;;;;;16.03;14.30;;;11.30;99.90;;;;;;5075717;28;20543;-86
2022/04/23 03:00:10;;;;;;;16.67;13.67;;;11.30;99.90;;;;;;5072881;28;20432;-84
2022/04/23 03:02:36;;;;;;;15.90;13.00;;;11.30;99.90;;;;;;5073211;28;20444;-86
2022/04/23 03:05:06;;;;;;;17.60;13.27;;;11.30;99.90;;;;;;5069416;28;20448;-86
2022/04/23 03:07:35;;;;;;;16.30;14.17;;;11.30;99.90;;;;;;5066016;28;20472;-87
2022/04/23 03:10:02;;;;;;;19.07;14.93;;;11.30;99.90;;;;;;5064281;28;20469;-86
2022/04/23 03:12:29;;;;;;;15.87;12.97;;;11.30;99.90;;;;;;5066311;28;20481;-85
2022/04/23 03:14:56;;;;;;;17.13;14.63;;;11.10;99.90;;;;;;5063494;28;20430;-86
2022/04/23 03:17:24;;;;;;;16.40;14.50;;;11.00;99.90;;;;;;5062972;28;20867;-85
2022/04/23 03:19:51;;;;;;;16.90;13.77;;;10.90;99.90;;;;;;5070722;28;20475;-86
2022/04/23 03:22:20;;;;;;;21.20;16.10;;;10.90;99.90;;;;;;5072619;28;20464;-86
2022/04/23 03:24:47;;;;;;;19.77;14.60;;;10.90;99.90;;;;;;5072619;28;20459;-86
2022/04/23 03:27:17;;;;;;;16.33;14.07;;;10.90;99.90;;;;;;5077822;28;20488;-85
2022/04/23 03:29:44;;;;;;;21.00;14.07;;;10.90;99.90;;;;;;5076549;28;20437;-86
2022/04/23 03:32:11;;;;;;;18.70;13.20;;;10.90;99.90;;;;;;5072904;28;20577;-86
2022/04/23 03:34:42;;;;;;;16.77;14.67;;;10.90;99.90;;;;;;5063652;28;20427;-87
2022/04/23 03:37:09;;;;;;;17.60;13.43;;;10.90;99.90;;;;;;5063050;28;20404;-86
2022/04/23 03:39:37;;;;;;;19.00;15.87;;;10.80;99.90;;;;;;5060326;28;20468;-86
2022/04/23 03:42:04;;;;;;;17.73;14.23;;;10.70;99.90;;;;;;5061196;28;20483;-86
2022/04/23 03:44:32;;;;;;;19.37;14.80;;;10.70;99.90;;;;;;5063855;28;20532;-86
2022/04/23 03:46:59;;;;;;;18.93;15.40;;;10.60;99.90;;;;;;5063859;28;20423;-86
2022/04/23 03:49:25;;;;;;;18.53;15.60;;;10.60;99.90;;;;;;5061838;28;20411;-86
2022/04/23 03:51:54;;;;;;;19.00;15.30;;;10.50;99.90;;;;;;5064250;28;20451;-87
2022/04/23 03:54:21;;;;;;;19.10;15.30;;;10.40;99.90;;;;;;5071482;28;20457;-87
2022/04/23 03:56:48;;;;;;;21.47;16.30;;;10.40;99.90;;;;;;5063462;28;20943;-86
2022/04/23 03:59:20;;;;;;;21.80;15.73;;;10.40;99.90;;;;;;5061549;28;20597;-86
2022/04/23 04:01:47;;;;;;;18.40;16.07;;;10.50;99.90;;;;;;5063908;28;20537;-86
2022/04/23 04:04:15;;;;;;;18.20;14.63;;;10.60;99.90;;;;;;5063867;28;20917;-86
2022/04/23 04:06:42;;;;;;;18.57;15.50;;;10.60;99.90;;;;;;5062045;28;20942;-87
2022/04/23 04:09:10;;;;;;;17.70;15.03;;;10.70;99.90;;;;;;5064984;28;20542;-86
2022/04/23 04:14:18;;;;;;;16.30;13.90;;;11.00;99.90;;;;;;5068189;28;20502;-86
2022/04/23 04:16:45;;;;;;;17.33;14.23;;;11.00;99.90;;;;;;5067545;28;20451;-87
2022/04/23 04:19:14;;;;;;;21.23;14.73;;;11.00;99.90;;;;;;5069205;28;20501;-86
2022/04/23 04:21:43;;;;;;;18.83;13.60;;;10.90;99.90;;;;;;5069753;28;20570;-87
2022/04/23 04:24:22;;;;;;;15.23;12.70;;;10.90;99.90;;;;;;5068016;28;20444;-87
2022/04/23 04:26:50;;;;;;;12.50;9.93;;;10.90;99.90;;;;;;5062782;28;20403;-87
2022/04/23 04:29:18;;;;;;;16.40;13.17;;;10.80;99.90;;;;;;5063878;28;20807;-87
2022/04/23 04:31:48;;;;;;;15.30;13.10;;;10.80;99.90;;;;;;5064658;28;20469;-86
2022/04/23 04:34:17;;;;;;;16.10;13.07;;;10.60;99.90;;;;;;5066029;28;20412;-86
2022/04/23 04:36:44;;;;;;;15.93;12.10;;;10.60;99.90;;;;;;5067622;28;20527;-86
2022/04/23 04:39:12;;;;;;;15.97;13.00;;;10.60;99.90;;;;;;5066961;28;20458;-86
2022/04/23 04:41:39;;;;;;;16.13;12.87;;;10.70;99.90;;;;;;5067388;28;20496;-86
2022/04/23 04:44:06;;;;;;;14.30;11.53;;;10.70;99.90;;;;;;5073540;28;20494;-86
2022/04/23 04:46:33;;;;;;;14.10;11.80;;;10.80;99.90;;;;;;5071207;28;20514;-87
2022/04/23 04:49:00;;;;;;;14.00;11.40;;;10.80;99.90;;;;;;5067268;28;20494;-87
2022/04/23 04:51:27;;;;;;;13.53;10.50;;;10.80;99.90;;;;;;5067342;28;20478;-87
2022/04/23 04:53:54;;;;;;;14.57;11.77;;;10.90;99.90;;;;;;5069045;28;20426;-87
2022/04/23 04:56:22;;;;;;;13.80;11.27;;;10.90;99.90;;;;;;5079925;28;20441;-87
2022/04/23 04:58:50;;;;;;;13.47;11.13;;;10.90;99.90;;;;;;5071611;28;20464;-87
2022/04/23 05:01:17;;;;;;;14.40;12.13;;;10.90;99.90;;;;;;5075991;28;20447;-87
2022/04/23 05:03:44;;;;;;;14.37;9.90;;;10.90;99.90;;;;;;5066850;28;20411;-87
2022/04/23 05:06:11;;;;;;;14.70;11.77;;;10.90;99.90;;;;;;5069769;28;20423;-85
2022/04/23 05:08:38;;;;;;;13.60;11.13;;;10.90;99.90;;;;;;5071122;28;20466;-87
2022/04/23 05:11:06;;;;;;;17.90;12.47;;;10.90;99.90;;;;;;5089598;22;20509;-86
2022/04/23 05:13:34;;;;;;;17.73;12.17;;;10.80;99.90;;;;;;5061520;28;20447;-84
2022/04/23 05:16:02;;;;;;;15.83;13.03;;;10.80;99.90;;;;;;5062164;28;21019;-84
2022/04/23 05:18:29;;;;;;;18.20;12.50;;;10.80;99.90;;;;;;5064802;28;20453;-86
2022/04/23 05:20:55;;;;;;;15.03;11.17;;;11.00;99.90;;;;;;5065233;28;20452;-86
2022/04/23 05:23:22;;;;;;;14.80;10.93;;;11.00;99.90;;;;;;5084179;28;20468;-86
2022/04/23 05:25:49;;;;;;;16.10;11.73;;;11.00;99.90;;;;;;5083113;28;20471;-85
2022/04/23 05:28:16;;;;;;;14.87;11.10;;;11.00;99.90;;;;;;5082470;28;20487;-86
2022/04/23 05:30:45;;;;;;;15.00;12.50;;;11.00;99.90;;;;;;5082039;28;20421;-86
2022/04/23 05:33:12;;;;;;;13.37;10.80;;;11.00;99.90;;;;;;5081279;28;20433;-85
2022/04/23 05:35:40;;;;;;;14.70;10.77;;;11.10;99.90;;;;;;5080588;28;20457;-85
2022/04/23 05:38:07;;;;;;;15.77;12.50;;;11.20;99.90;;;;;;5081878;28;20944;-85
2022/04/23 05:40:34;;;;;;;15.70;11.00;;;11.20;99.90;;;;;;5095302;28;20410;-86
2022/04/23 05:43:01;;;;;;;12.50;10.30;;;11.10;99.90;;;;;;5084941;28;20478;-85
2022/04/23 05:45:28;;;;;;;14.27;11.60;;;11.10;99.90;;;;;;5091526;28;20459;-84
2022/04/23 05:47:57;;;;;;;13.87;11.30;;;11.20;99.90;;;;;;5093318;28;20489;-85
2022/04/23 05:50:24;;;;;;;14.33;9.90;;;11.20;99.90;;;;;;5088703;28;20462;-85
2022/04/23 05:52:52;;;;;;;15.20;11.27;;;11.20;99.90;;;;;;5079971;28;20533;-84
2022/04/23 05:55:18;;;;;;;12.73;10.10;;;11.30;99.90;;;;;;5078547;28;20454;-84
2022/04/23 05:57:46;;;;;;;16.30;11.43;;;11.30;99.90;;;;;;5079092;28;20454;-85
2022/04/23 06:00:14;;;;;;;13.93;10.90;;;11.30;99.90;;;;;;5078688;28;20934;-84
2022/04/23 06:02:41;;;;;;;18.70;12.63;;;11.50;99.90;;;;;;5079475;28;20446;-86
2022/04/23 06:05:11;;;;;;;13.73;11.10;;;11.40;99.90;;;;;;5080563;28;20531;-85
2022/04/23 06:07:38;;;;;;;13.73;10.13;;;11.60;99.90;;;;;;5080425;28;20460;-86
2022/04/23 06:10:06;;;;;;;15.50;12.50;;;11.60;99.90;;;;;;5080323;28;20472;-85
2022/04/23 06:12:34;;;;;;;13.60;11.97;;;11.50;99.90;;;;;;5096264;28;20921;-85
2022/04/23 06:15:01;;;;;;;13.30;11.17;;;11.60;99.90;;;;;;5103410;28;20469;-86
2022/04/23 06:17:29;;;;;;;13.20;9.67;;;11.60;99.90;;;;;;5103398;28;20427;-85
2022/04/23 06:19:58;;;;;;;14.43;12.13;;;11.70;99.90;;;;;;5102177;28;20530;-86
2022/04/23 06:22:26;;;;;;;19.93;13.00;;;11.70;99.90;;;;;;5115789;28;20448;-84
2022/04/23 06:24:53;;;;;;;28.23;12.27;;;11.60;99.90;;;;;;5109137;28;20793;-86
2022/04/23 06:27:20;;;;;;;16.40;11.27;;;11.70;99.90;;;;;;5099869;28;20768;-85
2022/04/23 06:29:47;;;;;;;13.67;11.50;;;11.70;99.90;;;;;;5098870;28;20548;-85
2022/04/23 06:32:14;;;;;;;12.77;9.33;;;11.60;99.90;;;;;;5099921;28;20465;-85
2022/04/23 06:34:41;;;;;;;12.93;10.70;;;11.60;99.90;;;;;;5099382;28;20500;-85
2022/04/23 06:37:08;;;;;;;13.17;11.10;;;11.70;99.90;;;;;;5099455;28;20429;-85
2022/04/23 06:39:36;;;;;;;13.47;10.37;;;11.70;99.90;;;;;;5098592;28;20791;-85
2022/04/23 06:42:03;;;;;;;17.17;11.23;;;11.80;99.90;;;;;;5098046;28;20483;-85
2022/04/23 06:44:30;;;;;;;12.40;10.30;;;11.80;99.90;;;;;;5098448;28;20456;-85
2022/04/23 06:46:57;;;;;;;14.37;10.17;;;11.80;99.90;;;;;;5097971;28;20427;-85
2022/04/23 06:49:27;;;;;;;11.07;9.37;;;11.80;99.90;;;;;;5098382;28;20525;-84
2022/04/23 06:51:54;;;;;;;14.90;9.30;;;11.80;99.90;;;;;;5099686;28;20494;-85
2022/04/23 06:54:22;;;;;;;12.93;10.60;;;12.00;99.90;;;;;;5098933;28;20429;-85
2022/04/23 06:56:50;;;;;;;12.50;10.50;;;11.90;99.90;;;;;;5098654;28;20448;-85
2022/04/23 06:59:17;;;;;;;10.97;9.80;;;11.80;99.90;;;;;;5097996;28;20443;-84
2022/04/23 07:01:44;;;;;;;11.73;9.80;;;11.80;99.90;;;;;;5098471;28;20455;-84
2022/04/23 07:04:11;;;;;;;13.10;9.77;;;11.80;99.90;;;;;;5098238;28;20913;-84
2022/04/23 07:06:38;;;;;;;10.83;8.93;;;11.90;99.90;;;;;;5098313;28;20796;-85
2022/04/23 07:09:06;;;;;;;12.93;9.80;;;12.00;99.90;;;;;;5098861;28;20464;-84
2022/04/23 07:11:33;;;;;;;12.63;9.17;;;11.90;99.90;;;;;;5097890;28;20464;-85
2022/04/23 07:14:02;;;;;;;13.30;10.57;;;11.80;99.90;;;;;;5098297;28;20418;-85
2022/04/23 07:16:28;;;;;;;11.47;9.30;;;11.80;99.90;;;;;;5099331;28;20426;-86
2022/04/23 07:18:56;;;;;;;10.73;9.17;;;11.80;99.90;;;;;;5098701;28;20451;-86
2022/04/23 07:21:23;;;;;;;13.40;10.13;;;11.90;99.90;;;;;;5099987;28;20960;-84
2022/04/23 07:24:05;;;;;;;11.30;9.33;;;12.00;99.90;;;;;;5101254;28;20500;-84
2022/04/23 07:26:34;;;;;;;13.27;8.70;;;12.00;99.90;;;;;;5099392;28;20500;-85
2022/04/23 07:29:03;;;;;;;12.17;10.40;;;12.00;99.90;;;;;;5098884;28;20453;-85
2022/04/23 07:31:30;;;;;;;13.20;10.67;;;12.10;99.90;;;;;;5099024;28;20818;-84
2022/04/23 07:39:26;;;;;;;11.30;9.73;;;12.10;99.90;;;;;;5099936;28;20385;-84
2022/04/23 07:41:54;;;;;;;12.77;9.83;;;12.20;99.90;;;;;;5113254;28;20528;-83
2022/04/23 07:44:23;;;;;;;11.17;9.83;;;12.40;99.90;;;;;;5108603;28;20451;-85
2022/04/23 07:46:50;;;;;;;10.63;7.70;;;12.60;99.90;;;;;;5104050;28;20448;-85
2022/04/23 07:49:17;;;;;;;11.93;9.17;;;12.70;99.90;;;;;;5111134;28;20568;-84
2022/04/23 07:51:46;;;;;;;10.87;8.63;;;12.50;99.90;;;;;;5114388;28;20906;-84
2022/04/23 07:54:13;;;;;;;12.07;10.30;;;12.50;99.90;;;;;;5108427;28;20509;-84
2022/04/23 07:56:41;;;;;;;13.10;9.93;;;12.70;99.90;;;;;;5101502;28;21010;-84
2022/04/23 07:59:08;;;;;;;12.13;8.77;;;12.80;99.90;;;;;;5100968;28;20451;-85
2022/04/23 08:01:36;;;;;;;11.17;9.30;;;12.90;99.90;;;;;;5100502;28;20477;-86
2022/04/23 08:04:04;;;;;;;11.37;9.27;;;12.70;99.90;;;;;;5102356;28;20796;-85
2022/04/23 08:06:32;;;;;;;12.97;9.60;;;12.70;99.90;;;;;;5102995;28;20550;-85
2022/04/23 08:08:59;;;;;;;11.80;9.80;;;12.90;99.90;;;;;;5102818;28;20478;-84
2022/04/23 08:11:26;;;;;;;12.80;9.70;;;12.80;99.90;;;;;;5112147;28;20540;-85
2022/04/23 08:13:53;;;;;;;12.77;9.70;;;12.80;99.90;;;;;;5116413;28;20444;-83
2022/04/23 08:16:20;;;;;;;11.27;8.90;;;13.00;99.90;;;;;;5116857;28;20434;-83
2022/04/23 08:18:48;;;;;;;37.93;11.60;;;13.20;99.90;;;;;;5118341;28;20425;-85
2022/04/23 08:21:15;;;;;;;27.17;8.63;;;13.30;99.90;;;;;;5117362;28;20505;-84
2022/04/23 08:23:42;;;;;;;17.47;8.57;;;13.40;99.90;;;;;;5104081;28;20421;-85
2022/04/23 08:26:09;;;;;;;11.63;8.63;;;13.30;99.90;;;;;;5103028;28;20486;-85
2022/04/23 08:31:16;;;;;;;11.67;8.73;;;13.10;99.90;;;;;;5068718;28;20478;-84
2022/04/23 08:34:01;;;;;;;14.30;8.40;;;13.10;99.90;;;;;;5102181;28;20595;-85
2022/04/23 08:36:31;;;;;;;13.33;9.43;;;13.20;99.90;;;;;;5103339;28;20451;-84
2022/04/23 08:38:59;;;;;;;13.37;10.20;;;13.30;99.90;;;;;;5103805;28;20409;-84
2022/04/23 08:41:29;;;;;;;15.00;8.43;;;13.40;99.90;;;;;;5106500;28;20460;-85
2022/04/23 08:44:05;;;;;;;39.80;12.37;;;13.20;99.90;;;;;;5104228;28;20417;-84
2022/04/23 08:46:33;;;;;;;115.20;16.90;;;13.10;99.90;;;;;;5118622;28;20428;-82
2022/04/23 08:49:09;;;;;;;11.10;8.57;;;13.20;99.90;;;;;;5117766;28;20487;-85
2022/04/23 08:51:40;;;;;;;28.10;10.70;;;13.20;99.90;;;;;;5103704;28;20482;-85
2022/04/23 08:54:09;;;;;;;17.40;10.33;;;13.00;99.90;;;;;;5102647;28;20456;-84
2022/04/23 08:56:38;;;;;;;18.53;10.47;;;12.90;99.90;;;;;;5103070;28;20481;-85
2022/04/23 08:59:06;;;;;;;23.50;11.17;;;13.00;99.90;;;;;;5103437;28;20553;-84
2022/04/23 09:01:34;;;;;;;26.63;12.00;;;13.20;99.90;;;;;;5111407;28;20463;-84
2022/04/23 09:04:01;;;;;;;14.43;10.30;;;13.20;99.90;;;;;;5114734;28;20510;-85
2022/04/23 09:06:35;;;;;;;12.03;9.23;;;13.20;99.90;;;;;;5111541;28;20454;-85
2022/04/23 09:09:14;;;;;;;11.30;9.47;;;13.50;99.90;;;;;;5106082;28;20467;-85
2022/04/23 09:11:43;;;;;;;12.77;10.13;;;13.60;99.90;;;;;;5104669;28;20498;-84
2022/04/23 09:14:24;;;;;;;12.07;10.40;;;13.60;99.90;;;;;;5103165;28;20464;-85
2022/04/23 09:25:15;;;;;;;12.20;8.43;;;13.70;99.90;;;;;;5101050;28;20999;-83
2022/04/23 09:27:43;;;;;;;12.30;8.90;;;14.00;99.90;;;;;;5100812;28;20585;-86
2022/04/23 09:30:12;;;;;;;13.70;9.10;;;14.20;99.90;;;;;;5102491;28;20457;-85
2022/04/23 09:32:39;;;;;;;12.23;9.57;;;14.40;99.90;;;;;;5102345;28;20476;-85
2022/04/23 09:35:11;;;;;;;15.03;9.73;;;14.50;99.90;;;;;;5101933;28;20508;-86
2022/04/23 09:40:26;;;;;;;12.60;9.50;;;14.70;99.90;;;;;;5101589;28;20434;-86
2022/04/23 09:43:01;;;;;;;10.97;9.70;;;14.20;99.90;;;;;;5101683;28;21003;-85
2022/04/23 09:45:29;;;;;;;10.50;8.47;;;14.20;99.90;;;;;;5102489;28;20411;-83
2022/04/23 09:47:57;;;;;;;12.43;9.00;;;14.30;99.90;;;;;;5102504;28;20433;-84
2022/04/23 09:50:26;;;;;;;11.07;9.50;;;14.50;99.90;;;;;;5104447;28;20527;-84
2022/04/23 09:52:53;;;;;;;11.17;9.07;;;14.30;99.90;;;;;;5106126;28;20465;-85
2022/04/23 09:55:24;;;;;;;13.63;9.80;;;14.20;99.90;;;;;;5105755;28;20451;-85
2022/04/23 09:57:54;;;;;;;12.47;9.40;;;14.20;99.90;;;;;;5104956;28;20423;-85
2022/04/23 10:00:21;;;;;;;13.97;9.93;;;14.20;99.90;;;;;;5113341;28;20418;-85
2022/04/23 10:02:49;;;;;;;16.70;10.40;;;14.20;99.90;;;;;;5109780;28;20462;-85
2022/04/23 10:05:19;;;;;;;10.73;8.30;;;14.10;99.90;;;;;;5103131;28;20482;-86
2022/04/23 10:07:50;;;;;;;11.23;8.67;;;14.40;99.90;;;;;;5102015;28;20451;-84
2022/04/23 10:10:18;;;;;;;11.57;8.60;;;14.60;99.90;;;;;;5105817;28;20486;-84
2022/04/23 10:12:47;;;;;;;10.90;7.87;;;14.60;99.90;;;;;;5116489;28;20541;-83
2022/04/23 10:15:16;;;;;;;8.70;5.87;;;14.70;99.90;;;;;;5106772;28;20446;-83
2022/04/23 10:17:44;;;;;;;15.50;7.20;;;14.60;99.90;;;;;;5104835;28;21024;-85
2022/04/23 10:20:13;;;;;;;8.90;6.13;;;14.80;99.90;;;;;;5108271;28;20450;-84
2022/04/23 10:22:53;;;;;;;7.40;4.30;;;14.70;99.90;;;;;;5115199;28;20480;-84
2022/04/23 10:25:28;;;;;;;9.57;6.30;;;14.60;99.90;;;;;;5106501;28;20459;-85
2022/04/23 10:27:57;;;;;;;10.23;7.80;;;14.30;99.90;;;;;;5101592;28;20412;-84
2022/04/23 10:30:27;;;;;;;8.80;6.30;;;14.40;99.90;;;;;;5109462;28;20528;-83
2022/04/23 10:32:53;;;;;;;8.23;6.17;;;14.60;99.90;;;;;;5108258;28;20463;-85
2022/04/23 10:35:44;;;;;;;8.30;6.13;;;14.60;99.90;;;;;;5105610;28;20457;-86
2022/04/23 10:38:24;;;;;;;7.80;4.37;;;14.80;99.90;;;;;;5089536;28;20516;-86
2022/04/23 10:40:53;;;;;;;7.80;5.97;;;14.90;99.90;;;;;;5102222;28;20466;-86
2022/04/23 10:43:19;;;;;;;8.03;5.30;;;14.90;99.90;;;;;;5103536;28;20944;-86
2022/04/23 10:45:48;;;;;;;8.30;5.40;;;15.00;99.90;;;;;;5100931;28;20477;-86
2022/04/23 10:48:29;;;;;;;6.90;3.80;;;14.90;99.90;;;;;;5100727;28;20473;-86
2022/04/23 10:51:18;;;;;;;10.23;6.47;;;14.70;99.90;;;;;;5099893;28;20935;-86
2022/04/23 10:53:56;;;;;;;8.13;6.13;;;14.70;99.90;;;;;;5099153;28;20525;-85
2022/04/23 10:56:26;;;;;;;9.67;6.53;;;14.80;99.90;;;;;;5101055;28;20828;-85
2022/04/23 10:58:53;;;;;;;7.70;5.60;;;14.70;99.90;;;;;;5110656;28;20584;-85
2022/04/23 11:01:27;;;;;;;7.97;5.57;;;14.70;99.90;;;;;;5114237;28;20449;-86
2022/04/23 11:04:21;;;;;;;9.90;6.70;;;14.70;99.90;;;;;;5105410;28;20493;-86
2022/04/23 11:12:36;;;;;;;8.63;6.23;;;14.90;99.90;;;;;;5114698;22;20468;-86
2022/04/23 11:15:13;;;;;;;8.07;6.10;;;14.80;99.90;;;;;;5085571;28;20463;-87
2022/04/23 11:17:58;;;;;;;9.63;7.20;;;14.80;99.90;;;;;;5087453;28;20418;-87
2022/04/23 11:20:32;;;;;;;12.70;6.83;;;14.90;99.90;;;;;;5090348;28;20511;-88
2022/04/23 11:23:01;;;;;;;9.10;6.27;;;14.90;99.90;;;;;;5096355;28;20474;-86
2022/04/23 11:25:30;;;;;;;9.90;6.17;;;14.60;99.90;;;;;;5089234;28;20466;-86
2022/04/23 11:28:01;;;;;;;10.57;6.70;;;15.00;99.90;;;;;;5094261;28;20446;-87
2022/04/23 11:30:38;;;;;;;9.10;6.23;;;14.90;99.90;;;;;;5095704;28;20434;-87
2022/04/23 11:33:13;;;;;;;10.60;7.93;;;14.90;99.90;;;;;;5086111;28;20471;-87
2022/04/23 11:35:43;;;;;;;8.57;6.37;;;14.70;99.90;;;;;;5084751;28;20821;-85
2022/04/23 11:38:22;;;;;;;10.00;7.00;;;14.70;99.90;;;;;;5084885;28;20444;-87
2022/04/23 11:40:49;;;;;;;9.83;7.13;;;14.70;99.90;;;;;;5098323;28;20437;-87
2022/04/23 11:43:33;;;;;;;9.90;7.10;;;14.70;99.90;;;;;;5098570;28;20430;-87
2022/04/23 11:46:06;;;;;;;11.70;7.27;;;15.00;99.90;;;;;;5098394;28;20504;-86
2022/04/23 11:48:46;;;;;;;11.50;7.83;;;15.00;99.90;;;;;;5094145;28;20515;-87
2022/04/23 11:51:13;;;;;;;8.53;6.30;;;15.00;99.90;;;;;;5092233;28;20532;-87
2022/04/23 11:53:59;;;;;;;11.03;7.77;;;15.00;99.90;;;;;;5091051;28;20507;-87
2022/04/23 11:56:34;;;;;;;10.27;8.17;;;15.10;99.90;;;;;;5092109;28;20456;-87
2022/04/23 11:59:06;;;;;;;8.33;5.77;;;15.20;99.90;;;;;;5090715;28;20507;-87
2022/04/23 12:01:34;;;;;;;9.77;7.27;;;15.20;99.90;;;;;;5092027;28;20461;-86
2022/04/23 12:04:04;;;;;;;11.07;7.63;;;15.10;99.90;;;;;;5093599;28;20398;-87
2022/04/23 12:06:45;;;;;;;9.70;7.60;;;15.00;99.90;;;;;;5092853;28;20422;-87
2022/04/23 12:09:13;;;;;;;9.50;7.20;;;14.90;99.90;;;;;;5092547;28;20417;-87
2022/04/23 12:11:43;;;;;;;11.60;8.07;;;15.00;99.90;;;;;;5090927;28;20430;-87
2022/04/23 12:14:12;;;;;;;12.33;8.70;;;15.00;99.90;;;;;;5090163;28;20420;-88
2022/04/23 12:16:41;;;;;;;10.73;7.87;;;15.10;99.90;;;;;;5093562;28;20470;-88
2022/04/23 12:19:12;;;;;;;12.47;8.43;;;15.20;99.90;;;;;;5091390;28;20510;-88
2022/04/23 12:21:59;;;;;;;10.13;7.37;;;15.20;99.90;;;;;;5092573;28;20504;-87
2022/04/23 12:24:34;;;;;;;10.93;7.27;;;15.20;99.90;;;;;;5090044;28;20402;-88
2022/04/23 12:27:03;;;;;;;11.60;8.33;;;15.40;99.90;;;;;;5096100;28;20462;-88
2022/04/23 12:40:53;;;;;;;9.40;7.60;;;15.40;99.90;;;;;;5089586;28;20473;-87
2022/04/23 12:43:26;;;;;;;9.50;6.80;;;15.50;99.90;;;;;;5189862;23;20491;-88
2022/04/23 12:46:07;;;;;;;11.13;7.90;;;15.50;99.90;;;;;;5108107;28;20450;-88
2022/04/23 12:49:03;;;;;;;10.87;8.30;;;15.50;99.90;;;;;;5106907;28;20409;-87
2022/04/23 12:52:01;;;;;;;10.43;8.13;;;15.50;99.90;;;;;;5112085;28;20486;-87
2022/04/23 12:54:32;;;;;;;9.63;7.23;;;15.50;99.90;;;;;;5112926;28;20421;-87
2022/04/23 12:57:06;;;;;;;9.80;7.37;;;15.50;99.90;;;;;;5113982;28;20414;-87
2022/04/23 12:59:51;;;;;;;10.00;8.37;;;15.50;99.90;;;;;;5102907;28;20431;-86
2022/04/23 13:02:21;;;;;;;10.27;8.97;;;15.50;99.90;;;;;;5105227;28;20441;-87
2022/04/23 13:04:53;;;;;;;14.10;11.30;;;15.60;99.90;;;;;;5106212;28;20410;-87
2022/04/23 13:10:11;;;;;;;11.23;8.77;;;15.60;99.90;;;;;;5104582;28;20860;-88
2022/04/23 13:12:38;;;;;;;10.20;7.50;;;15.80;99.90;;;;;;5103091;28;20490;-87
2022/04/23 13:15:08;;;;;;;8.77;6.70;;;15.90;99.90;;;;;;5104259;28;20447;-86
2022/04/23 13:17:38;;;;;;;9.80;8.27;;;15.90;99.90;;;;;;5104649;28;20387;-87
2022/04/23 13:20:13;;;;;;;10.80;8.23;;;15.70;99.90;;;;;;5111604;28;20457;-89
2022/04/23 13:22:45;;;;;;;11.33;7.70;;;15.80;99.90;;;;;;5106780;28;20454;-87
2022/04/23 13:25:15;;;;;;;10.30;8.40;;;15.80;99.90;;;;;;5113889;28;20505;-86
2022/04/23 13:27:45;;;;;;;10.63;8.17;;;15.60;99.90;;;;;;5107151;28;20433;-88